Time;durP1;ratioP1;P1;durP2;ratioP2;P2;SDS_P1;SDS_P2;PMS_P1;PMS_P2;Temp;Humidity;BMP_temperature;BMP_pressure;BME280_temperature;BME280_humidity;BME280_pressure;Samples;Min_cycle;Max_cycle;Signal;HPM_P1;HPM_P2
2022/07/07 00:00:44;;;;;;;13.30;6.00;;;;;;;15.72;60.80;99256.06;105870;1279;113390;-68
2022/07/07 00:03:11;;;;;;;14.50;5.50;;;;;;;15.69;60.93;99255.48;105799;1279;99458;-68
2022/07/07 00:05:42;;;;;;;13.30;5.80;;;;;;;15.68;61.03;99255.21;105796;1279;108301;-67
2022/07/07 00:08:12;;;;;;;17.50;6.40;;;;;;;15.65;60.94;99256.02;105779;1279;99314;-67
2022/07/07 00:10:42;;;;;;;13.10;5.60;;;;;;;15.62;61.04;99257.36;105795;1279;99215;-67
2022/07/07 00:13:12;;;;;;;15.50;6.00;;;;;;;15.59;61.05;99262.06;105786;1279;113992;-66
2022/07/07 00:15:45;;;;;;;14.80;6.20;;;;;;;15.56;61.08;99259.91;105808;1279;99338;-66
2022/07/07 00:18:16;;;;;;;15.30;6.60;;;;;;;15.52;61.09;99255.05;105870;1278;108714;-66
2022/07/07 00:20:46;;;;;;;19.40;7.40;;;;;;;15.49;61.20;99253.59;105752;1281;99110;-66
2022/07/07 00:23:14;;;;;;;15.60;6.80;;;;;;;15.45;61.19;99254.58;105817;1279;96539;-67
2022/07/07 00:25:42;;;;;;;17.10;7.40;;;;;;;15.43;61.29;99251.95;105773;1279;113406;-66
2022/07/07 00:28:10;;;;;;;16.90;7.20;;;;;;;15.39;61.29;99249.76;105820;1279;99101;-67
2022/07/07 00:30:39;;;;;;;14.60;6.00;;;;;;;15.35;61.33;99246.39;105756;1279;108475;-67
2022/07/07 00:33:14;;;;;;;14.60;6.90;;;;;;;15.32;61.30;99245.79;105794;1279;99338;-67
2022/07/07 00:35:44;;;;;;;16.20;6.40;;;;;;;15.26;61.40;99243.05;105800;1279;99296;-67
2022/07/07 00:38:15;;;;;;;12.50;6.00;;;;;;;15.23;61.56;99240.48;105768;1279;113387;-67
2022/07/07 00:40:51;;;;;;;15.50;6.40;;;;;;;15.21;61.54;99239.73;105918;1279;99239;-68
2022/07/07 00:43:26;;;;;;;19.60;6.60;;;;;;;15.18;61.56;99236.61;105821;1279;108317;-67
2022/07/07 00:45:54;;;;;;;16.00;6.30;;;;;;;15.14;61.56;99235.74;105877;1279;99246;-68
2022/07/07 00:48:24;;;;;;;18.50;7.00;;;;;;;15.10;61.61;99234.69;105986;1279;99325;-67
2022/07/07 00:50:52;;;;;;;17.20;6.00;;;;;;;15.07;61.73;99232.44;105932;1279;113464;-67
2022/07/07 00:53:20;;;;;;;13.50;5.80;;;;;;;15.05;61.84;99234.94;105867;1279;98882;-67
2022/07/07 00:55:51;;;;;;;14.00;5.80;;;;;;;15.02;61.86;99236.42;105739;1279;108382;-66
2022/07/07 00:58:22;;;;;;;16.50;6.10;;;;;;;15.01;61.95;99234.95;105782;1279;96659;-66
2022/07/07 01:00:50;;;;;;;14.70;6.30;;;;;;;14.99;62.01;99233.27;105813;1279;96641;-67
2022/07/07 01:03:19;;;;;;;17.00;5.80;;;;;;;14.98;61.99;99236.21;105933;1279;113490;-66
2022/07/07 01:05:50;;;;;;;15.20;6.50;;;;;;;14.95;61.97;99229.39;106019;1279;99299;-70
2022/07/07 01:08:18;;;;;;;15.00;6.60;;;;;;;14.93;62.04;99231.02;105901;1279;107632;-69
2022/07/07 01:10:49;;;;;;;15.70;6.10;;;;;;;14.92;62.12;99225.05;105880;1279;99198;-68
2022/07/07 01:13:16;;;;;;;13.00;5.80;;;;;;;14.92;62.24;99229.67;105894;1279;99224;-65
2022/07/07 01:15:45;;;;;;;13.70;5.80;;;;;;;14.93;62.32;99232.09;105904;1279;113394;-66
2022/07/07 01:18:13;;;;;;;15.80;6.50;;;;;;;14.92;62.28;99222.14;105806;1279;99270;-66
2022/07/07 01:20:48;;;;;;;15.30;6.10;;;;;;;14.91;62.35;99223.29;105833;1279;108484;-66
2022/07/07 01:23:18;;;;;;;14.40;5.90;;;;;;;14.90;62.41;99226.81;105887;1279;99227;-65
2022/07/07 01:25:46;;;;;;;18.60;6.50;;;;;;;14.89;62.44;99232.86;105899;1279;99247;-65
2022/07/07 01:28:16;;;;;;;15.80;6.30;;;;;;;14.89;62.44;99233.66;105836;1279;112661;-65
2022/07/07 01:30:49;;;;;;;13.10;5.80;;;;;;;14.87;62.48;99237.21;105856;1279;100350;-65
2022/07/07 01:33:17;;;;;;;13.70;6.30;;;;;;;14.85;62.49;99240.11;105873;1279;106572;-65
2022/07/07 01:35:47;;;;;;;16.90;7.20;;;;;;;14.81;62.59;99243.06;105877;1279;96625;-66
2022/07/07 01:38:14;;;;;;;15.30;6.80;;;;;;;14.77;62.57;99247.17;105918;1279;96568;-66
2022/07/07 01:40:44;;;;;;;14.50;6.20;;;;;;;14.75;62.69;99247.55;105882;1279;113435;-67
2022/07/07 01:43:12;;;;;;;16.70;6.40;;;;;;;14.71;62.61;99245.91;105847;1279;99097;-68
2022/07/07 01:45:40;;;;;;;14.60;6.00;;;;;;;14.69;62.71;99246.58;105832;1279;108353;-67
2022/07/07 01:48:13;;;;;;;18.20;6.20;;;;;;;14.66;62.76;99241.31;105792;1279;99361;-65
2022/07/07 01:50:41;;;;;;;16.50;6.20;;;;;;;14.64;62.76;99245.05;105903;1279;99163;-66
2022/07/07 01:53:09;;;;;;;16.70;6.50;;;;;;;14.60;62.78;99248.59;105946;1279;113365;-66
2022/07/07 01:55:39;;;;;;;14.80;6.10;;;;;;;14.58;62.91;99251.11;105954;1279;99297;-65
2022/07/07 01:58:07;;;;;;;17.50;6.10;;;;;;;14.56;62.87;99253.41;105911;1279;108138;-65
2022/07/07 02:00:37;;;;;;;15.00;5.60;;;;;;;14.54;62.92;99252.39;105840;1279;96678;-65
2022/07/07 02:03:07;;;;;;;20.80;7.20;;;;;;;14.49;63.04;99251.15;105868;1279;99225;-67
2022/07/07 02:05:38;;;;;;;17.60;6.50;;;;;;;14.45;63.07;99245.07;105916;1278;113293;-67
2022/07/07 02:08:08;;;;;;;16.10;6.70;;;;;;;14.42;63.08;99241.73;105918;1279;99367;-67
2022/07/07 02:13:27;;;;;;;14.60;6.30;;;;;;;14.38;63.26;99242.27;105868;1279;99941;-65
2022/07/07 02:15:57;;;;;;;14.80;7.00;;;;;;;14.37;63.25;99242.21;105892;1279;96638;-66
2022/07/07 02:18:35;;;;;;;16.70;6.70;;;;;;;14.33;63.11;99239.67;105802;1279;113310;-66
2022/07/07 02:21:07;;;;;;;19.20;7.30;;;;;;;14.28;63.27;99239.70;105799;1279;99374;-67
2022/07/07 02:23:39;;;;;;;16.20;7.30;;;;;;;14.26;63.33;99241.35;105945;1279;106749;-66
2022/07/07 02:26:07;;;;;;;14.10;7.10;;;;;;;14.24;63.32;99238.84;105921;1279;99237;-68
2022/07/07 02:28:36;;;;;;;15.80;8.10;;;;;;;14.22;63.44;99239.53;105843;1279;98247;-67
2022/07/07 02:31:08;;;;;;;18.60;6.80;;;;;;;14.21;63.44;99238.40;105861;1279;112770;-68
2022/07/07 02:33:39;;;;;;;20.10;6.80;;;;;;;14.22;63.65;99240.43;105875;1279;99233;-67
2022/07/07 02:36:10;;;;;;;14.70;6.90;;;;;;;14.24;63.61;99240.63;105827;1279;108363;-71
2022/07/07 02:38:40;;;;;;;12.60;6.50;;;;;;;14.22;63.60;99240.64;105924;1279;99291;-69
2022/07/07 02:41:09;;;;;;;14.00;7.10;;;;;;;14.20;63.53;99242.23;105892;1279;99249;-68
2022/07/07 02:43:39;;;;;;;12.90;6.20;;;;;;;14.15;63.62;99241.41;105853;1279;112817;-68
2022/07/07 02:46:08;;;;;;;15.80;6.60;;;;;;;14.12;63.73;99240.58;105885;1279;99857;-69
2022/07/07 02:48:38;;;;;;;14.70;6.30;;;;;;;14.12;63.82;99238.56;105843;1279;108658;-68
2022/07/07 02:51:09;;;;;;;14.00;7.20;;;;;;;14.13;63.86;99239.19;105840;1279;99233;-68
2022/07/07 02:53:39;;;;;;;19.90;7.30;;;;;;;14.13;63.97;99243.30;105960;1279;99233;-68
2022/07/07 02:56:07;;;;;;;21.80;7.30;;;;;;;14.14;63.92;99240.89;105886;1279;113783;-67
2022/07/07 02:58:40;;;;;;;19.40;6.90;;;;;;;14.11;63.68;99241.17;105876;1279;99364;-68
2022/07/07 03:01:08;;;;;;;20.40;7.70;;;;;;;13.99;63.32;99238.48;105833;1279;108183;-68
2022/07/07 03:03:38;;;;;;;14.80;7.20;;;;;;;13.78;63.22;99237.16;105842;1279;99317;-68
2022/07/07 03:06:08;;;;;;;19.00;7.70;;;;;;;13.57;63.31;99242.09;105900;1279;99328;-67
2022/07/07 03:08:36;;;;;;;20.60;8.50;;;;;;;13.41;63.42;99243.52;105794;1279;113014;-67
2022/07/07 03:11:06;;;;;;;19.70;8.00;;;;;;;13.32;63.74;99244.05;105719;1281;96676;-67
2022/07/07 03:13:35;;;;;;;18.40;8.40;;;;;;;13.28;63.89;99244.02;105889;1279;108359;-66
2022/07/07 03:16:06;;;;;;;17.50;8.30;;;;;;;13.26;63.71;99244.20;105979;1279;96619;-67
2022/07/07 03:18:36;;;;;;;21.30;8.80;;;;;;;13.22;63.95;99241.85;105989;1279;99229;-65
2022/07/07 03:21:04;;;;;;;16.90;8.70;;;;;;;13.22;64.19;99242.91;105964;1279;112995;-68
2022/07/07 03:23:34;;;;;;;21.10;8.20;;;;;;;13.23;64.32;99239.77;105891;1279;99212;-66
2022/07/07 03:26:04;;;;;;;16.50;7.90;;;;;;;13.23;64.27;99237.83;105834;1279;107414;-68
2022/07/07 03:28:34;;;;;;;15.60;7.60;;;;;;;13.24;64.55;99237.45;105793;1279;97681;-68
2022/07/07 03:31:04;;;;;;;20.00;8.00;;;;;;;13.26;64.61;99241.51;105911;1279;99235;-68
2022/07/07 03:33:34;;;;;;;19.50;8.20;;;;;;;13.28;64.61;99244.73;105763;1279;113349;-68
2022/07/07 03:36:07;;;;;;;19.70;8.90;;;;;;;13.30;64.46;99239.27;105775;1279;99785;-66
2022/07/07 03:38:35;;;;;;;19.20;8.40;;;;;;;13.27;64.37;99243.59;105847;1279;107585;-66
2022/07/07 03:41:05;;;;;;;15.30;7.30;;;;;;;13.20;64.27;99240.76;105796;1279;99820;-64
2022/07/07 03:43:34;;;;;;;27.70;10.00;;;;;;;13.14;64.26;99244.64;105733;1280;99323;-68
2022/07/07 03:46:04;;;;;;;18.10;8.10;;;;;;;13.11;64.38;99243.29;105815;1279;113387;-65
2022/07/07 03:48:33;;;;;;;17.50;8.10;;;;;;;13.09;64.70;99246.13;103865;1279;2671769;-65
2022/07/07 03:51:01;;;;;;;25.50;8.60;;;;;;;13.09;64.62;99239.48;105861;1279;108217;-64
2022/07/07 03:53:29;;;;;;;17.30;8.50;;;;;;;13.11;64.91;99237.41;105866;1279;99314;-64
2022/07/07 03:56:01;;;;;;;17.60;8.00;;;;;;;13.14;65.10;99233.63;105901;1279;99252;-64
2022/07/07 03:58:29;;;;;;;18.80;8.80;;;;;;;13.20;64.98;99237.44;105730;1280;113444;-65
2022/07/07 04:01:00;;;;;;;18.80;7.90;;;;;;;13.23;65.16;99237.66;105828;1279;98208;-67
2022/07/07 04:03:29;;;;;;;16.70;8.50;;;;;;;13.28;65.19;99236.19;105832;1279;108237;-67
2022/07/07 04:05:57;;;;;;;17.50;8.80;;;;;;;13.34;65.43;99233.06;105868;1279;99346;-66
2022/07/07 04:08:25;;;;;;;19.30;8.50;;;;;;;13.39;65.48;99231.02;105934;1279;96628;-69
2022/07/07 04:10:55;;;;;;;20.70;7.90;;;;;;;13.48;65.79;99234.66;105961;1279;112724;-67
2022/07/07 04:13:23;;;;;;;18.00;9.10;;;;;;;13.55;65.78;99230.99;105871;1279;99436;-68
2022/07/07 04:15:57;;;;;;;17.60;8.70;;;;;;;13.63;65.84;99230.92;105935;1279;107713;-67
2022/07/07 04:18:25;;;;;;;18.10;9.20;;;;;;;13.71;65.88;99230.77;105848;1279;99263;-67
2022/07/07 04:20:56;;;;;;;24.00;9.80;;;;;;;13.79;65.93;99232.30;105868;1279;99834;-65
2022/07/07 04:23:26;;;;;;;17.00;9.10;;;;;;;13.86;66.05;99232.55;105857;1279;113396;-66
2022/07/07 04:25:56;;;;;;;19.50;8.90;;;;;;;13.94;66.01;99232.09;105746;1279;99361;-66
2022/07/07 04:28:24;;;;;;;17.90;9.10;;;;;;;14.03;65.77;99234.39;105725;1279;108351;-67
2022/07/07 04:30:52;;;;;;;18.60;8.50;;;;;;;14.09;65.90;99230.44;105858;1279;99299;-66
2022/07/07 04:33:21;;;;;;;17.90;8.70;;;;;;;14.16;65.85;99232.61;107463;1279;97428;-66
2022/07/07 04:35:49;;;;;;;16.90;8.30;;;;;;;14.22;65.93;99233.98;106942;1279;112728;-67
2022/07/07 04:38:17;;;;;;;18.00;7.90;;;;;;;14.31;66.16;99235.61;106015;1279;97702;-67
2022/07/07 04:40:46;;;;;;;19.60;7.70;;;;;;;14.39;66.25;99230.11;107281;1277;108530;-66
2022/07/07 04:43:15;;;;;;;16.60;7.70;;;;;;;14.48;66.23;99235.39;106608;1279;97060;-67
2022/07/07 04:45:45;;;;;;;16.70;8.20;;;;;;;14.57;66.30;99239.58;105858;1279;99326;-67
2022/07/07 04:48:13;;;;;;;17.40;7.30;;;;;;;14.66;66.27;99236.68;105834;1279;113341;-66
2022/07/07 04:50:43;;;;;;;15.80;7.50;;;;;;;14.74;66.20;99238.00;105835;1279;99068;-67
2022/07/07 04:53:13;;;;;;;13.40;6.50;;;;;;;14.82;66.25;99234.29;105860;1279;108438;-66
2022/07/07 04:55:43;;;;;;;16.90;7.40;;;;;;;14.88;66.13;99232.81;105804;1279;99216;-66
2022/07/07 04:58:13;;;;;;;15.40;6.90;;;;;;;14.96;66.11;99236.98;105870;1279;99201;-66
2022/07/07 05:00:43;;;;;;;16.90;7.60;;;;;;;15.02;66.17;99239.61;105973;1279;112699;-66
2022/07/07 05:03:13;;;;;;;16.10;6.20;;;;;;;15.09;66.22;99239.23;105924;1279;99338;-67
2022/07/07 05:05:43;;;;;;;13.60;6.80;;;;;;;15.16;66.24;99236.06;105879;1279;108437;-66
2022/07/07 05:08:14;;;;;;;17.20;6.50;;;;;;;15.24;66.33;99239.09;105873;1279;99314;-67
2022/07/07 05:10:42;;;;;;;14.90;6.90;;;;;;;15.33;66.35;99235.48;105934;1279;99923;-67
2022/07/07 05:13:14;;;;;;;12.30;6.00;;;;;;;15.41;66.35;99238.84;105922;1279;113134;-67
2022/07/07 05:15:42;;;;;;;15.40;6.70;;;;;;;15.51;66.33;99239.02;105922;1279;99432;-67
2022/07/07 05:18:12;;;;;;;12.50;6.40;;;;;;;15.60;66.29;99235.70;105939;1279;108249;-68
2022/07/07 05:20:40;;;;;;;12.30;5.70;;;;;;;15.69;66.17;99236.05;105907;1279;99334;-71
2022/07/07 05:23:13;;;;;;;13.40;5.70;;;;;;;15.78;66.34;99233.97;105908;1279;99326;-68
2022/07/07 05:25:41;;;;;;;13.30;5.80;;;;;;;15.89;66.27;99229.21;105839;1279;113449;-68
2022/07/07 05:28:09;;;;;;;12.40;6.10;;;;;;;16.01;66.17;99228.48;105929;1279;99328;-69
2022/07/07 05:30:39;;;;;;;16.10;6.10;;;;;;;16.15;66.30;99222.19;105859;1279;108475;-68
2022/07/07 05:33:09;;;;;;;12.40;5.50;;;;;;;16.29;66.32;99224.65;105816;1279;99217;-65
2022/07/07 05:35:41;;;;;;;19.00;5.70;;;;;;;16.41;66.22;99223.35;105840;1279;99440;-67
2022/07/07 05:38:09;;;;;;;12.90;5.80;;;;;;;16.52;66.21;99225.49;105858;1279;111627;-67
2022/07/07 05:40:39;;;;;;;12.30;5.10;;;;;;;16.61;66.30;99228.06;105842;1279;96596;-67
2022/07/07 05:43:08;;;;;;;13.10;5.70;;;;;;;16.70;66.38;99221.70;105866;1279;107758;-67
2022/07/07 05:45:41;;;;;;;12.40;5.50;;;;;;;16.80;66.18;99222.91;105799;1279;99213;-66
2022/07/07 05:48:09;;;;;;;17.10;5.50;;;;;;;16.90;66.12;99223.64;105898;1279;99252;-67
2022/07/07 05:50:39;;;;;;;16.90;5.60;;;;;;;17.00;66.01;99225.63;105843;1279;113300;-68
2022/07/07 05:53:12;;;;;;;12.10;5.20;;;;;;;17.11;65.89;99222.77;105847;1279;97742;-68
2022/07/07 05:55:39;;;;;;;12.40;4.80;;;;;;;17.22;65.80;99222.80;105853;1279;108302;-67
2022/07/07 05:58:12;;;;;;;12.50;4.60;;;;;;;17.32;66.07;99228.59;105801;1279;99202;-68
2022/07/07 06:00:40;;;;;;;14.50;5.00;;;;;;;17.41;65.95;99223.13;105877;1279;99211;-68
2022/07/07 06:03:10;;;;;;;14.00;5.40;;;;;;;17.49;65.87;99223.02;105860;1279;113283;-68
2022/07/07 06:05:43;;;;;;;17.60;5.50;;;;;;;17.57;65.79;99227.92;105883;1279;99316;-66
2022/07/07 06:08:11;;;;;;;14.60;5.10;;;;;;;17.67;66.03;99228.64;105896;1279;108419;-66
2022/07/07 06:10:41;;;;;;;15.90;5.90;;;;;;;17.76;65.82;99227.17;105868;1279;99919;-68
2022/07/07 06:13:14;;;;;;;12.00;5.10;;;;;;;17.85;65.92;99227.30;105883;1279;99384;-68
2022/07/07 06:15:42;;;;;;;10.10;4.70;;;;;;;17.95;65.62;99225.76;105833;1279;111111;-69
2022/07/07 06:18:15;;;;;;;13.20;5.10;;;;;;;18.09;65.64;99226.80;105896;1279;99368;-67
2022/07/07 06:20:43;;;;;;;12.30;4.60;;;;;;;18.19;65.49;99224.31;105876;1279;107769;-69
2022/07/07 06:30:58;;;;;;;9.50;4.00;;;;;;;18.61;65.34;99212.50;105877;1280;113325;-67
2022/07/07 06:33:28;;;;;;;9.70;4.00;;;;;;;18.86;65.15;99211.31;105905;1280;99923;-67
2022/07/07 06:35:58;;;;;;;12.90;3.90;;;;;;;19.03;65.11;99214.27;105946;1279;109143;-67
2022/07/07 06:38:28;;;;;;;10.50;3.60;;;;;;;19.15;65.13;99212.62;105956;1280;100032;-66
2022/07/07 06:41:02;;;;;;;6.80;3.60;;;;;;;19.25;64.96;99207.86;105900;1279;99244;-67
2022/07/07 06:43:30;;;;;;;10.20;3.70;;;;;;;19.38;64.95;99209.33;105867;1279;113361;-67
2022/07/07 06:45:57;;;;;;;11.40;4.10;;;;;;;19.48;64.89;99210.03;105941;1279;99954;-67
2022/07/07 06:48:28;;;;;;;8.30;3.50;;;;;;;19.53;64.76;99208.39;105894;1280;108844;-67
2022/07/07 06:50:58;;;;;;;8.20;2.90;;;;;;;19.64;64.71;99211.00;105930;1280;96637;-66
2022/07/07 06:53:28;;;;;;;7.00;2.70;;;;;;;19.79;64.39;99208.08;105939;1279;99174;-67
2022/07/07 06:55:59;;;;;;;9.30;2.90;;;;;;;19.99;64.43;99205.45;105945;1279;112935;-66
2022/07/07 06:58:26;;;;;;;12.80;3.20;;;;;;;20.21;64.15;99209.31;105960;1280;99250;-65
2022/07/07 07:00:56;;;;;;;6.70;3.10;;;;;;;20.52;64.07;99206.86;105875;1280;109048;-68
2022/07/07 07:03:24;;;;;;;7.10;3.40;;;;;;;20.84;63.88;99207.79;105864;1279;99261;-68
2022/07/07 07:05:55;;;;;;;6.00;3.30;;;;;;;20.94;63.68;99200.14;105870;1279;99372;-67
2022/07/07 07:08:25;;;;;;;6.20;3.20;;;;;;;21.34;63.30;99198.48;105871;1279;113978;-67
2022/07/07 07:10:55;;;;;;;6.50;2.80;;;;;;;22.53;61.79;99193.55;105866;1279;96600;-68
2022/07/07 07:13:26;;;;;;;5.00;2.60;;;;;;;23.53;61.68;99190.44;105848;1279;109096;-66
2022/07/07 07:15:56;;;;;;;11.40;2.80;;;;;;;23.53;62.63;99193.11;105855;1281;99342;-67
2022/07/07 07:18:24;;;;;;;7.90;3.10;;;;;;;24.05;62.00;99194.19;105879;1279;99939;-68
2022/07/07 07:20:54;;;;;;;9.60;3.00;;;;;;;25.48;61.18;99185.45;105839;1281;113352;-69
2022/07/07 07:23:23;;;;;;;4.70;2.60;;;;;;;26.89;60.27;99185.67;105850;1279;97175;-66
2022/07/07 07:25:54;;;;;;;7.30;3.20;;;;;;;28.30;59.96;99185.52;105956;1280;107670;-67
2022/07/07 07:28:26;;;;;;;9.80;2.70;;;;;;;29.47;59.38;99191.89;105968;1281;99368;-67
2022/07/07 07:30:54;;;;;;;7.70;2.90;;;;;;;30.62;59.21;99186.64;105975;1280;97698;-66
2022/07/07 07:33:28;;;;;;;9.20;3.40;;;;;;;31.65;58.66;99186.95;105840;1280;113003;-67
2022/07/07 07:35:59;;;;;;;8.50;3.00;;;;;;;32.62;58.35;99189.45;105938;1280;99844;-68
2022/07/07 07:38:30;;;;;;;5.40;2.60;;;;;;;33.37;58.14;99188.50;105889;1280;108223;-68
2022/07/07 07:40:58;;;;;;;7.70;2.80;;;;;;;34.04;57.36;99188.14;105887;1280;99301;-67
2022/07/07 07:43:29;;;;;;;8.90;2.30;;;;;;;34.85;56.82;99184.09;105914;1280;99226;-67
2022/07/07 07:45:59;;;;;;;5.90;2.30;;;;;;;35.61;56.50;99187.52;105887;1280;113970;-68
2022/07/07 07:48:31;;;;;;;9.60;2.40;;;;;;;36.38;55.87;99183.75;105931;1280;99337;-67
2022/07/07 07:51:01;;;;;;;5.30;2.50;;;;;;;36.87;55.06;99182.59;105870;1279;108385;-67
2022/07/07 07:53:29;;;;;;;7.90;2.20;;;;;;;37.17;55.30;99183.12;105871;1280;99256;-68
2022/07/07 07:55:58;;;;;;;5.40;2.40;;;;;;;37.22;54.79;99182.91;105757;1281;99323;-67
2022/07/07 07:58:26;;;;;;;5.80;2.10;;;;;;;37.83;53.58;99183.92;105863;1281;113408;-67
2022/07/07 08:00:58;;;;;;;5.50;1.90;;;;;;;38.41;53.15;99177.80;105839;1281;99738;-67
2022/07/07 08:03:28;;;;;;;4.40;1.80;;;;;;;38.68;52.00;99177.00;105837;1280;108557;-67
2022/07/07 08:05:58;;;;;;;8.10;2.10;;;;;;;38.90;50.75;99174.14;105810;1281;99316;-67
2022/07/07 08:08:28;;;;;;;2.80;1.60;;;;;;;39.23;50.31;99173.25;105872;1281;100292;-67
2022/07/07 08:10:56;;;;;;;5.40;2.10;;;;;;;39.81;49.62;99176.23;105888;1280;113356;-67
2022/07/07 08:13:26;;;;;;;3.80;1.80;;;;;;;40.30;48.99;99181.69;105884;1281;99833;-67
2022/07/07 08:15:57;;;;;;;6.90;1.70;;;;;;;40.22;48.54;99178.52;105891;1280;107723;-67
2022/07/07 08:18:28;;;;;;;5.40;2.00;;;;;;;39.31;47.96;99175.23;105854;1279;99311;-67
2022/07/07 08:20:59;;;;;;;4.10;1.60;;;;;;;38.55;46.94;99173.88;105891;1281;99324;-66
2022/07/07 08:23:27;;;;;;;4.30;1.80;;;;;;;38.42;46.29;99175.06;105882;1281;112872;-64
2022/07/07 08:25:57;;;;;;;8.20;1.90;;;;;;;37.53;45.29;99178.92;105929;1281;97072;-67
2022/07/07 08:28:34;;;;;;;4.10;2.40;;;;;;;37.51;44.65;99180.43;105915;1279;108768;-67
2022/07/07 08:31:11;;;;;;;13.70;3.20;;;;;;;37.55;43.97;99182.86;105747;1281;99273;-67
2022/07/07 08:33:46;;;;;;;7.10;1.90;;;;;;;37.38;43.25;99186.61;105643;1281;99436;-66
2022/07/07 08:36:14;;;;;;;4.30;2.20;;;;;;;36.69;43.18;99182.08;105909;1280;112751;-68
2022/07/07 08:38:44;;;;;;;6.00;2.10;;;;;;;35.90;42.64;99188.66;105784;1281;98407;-68
2022/07/07 08:41:15;;;;;;;4.90;2.10;;;;;;;35.10;42.19;99187.88;105731;1280;108791;-68
2022/07/07 08:43:43;;;;;;;8.40;2.00;;;;;;;34.19;41.21;99184.80;105733;1281;99796;-67
2022/07/07 08:46:14;;;;;;;5.60;2.30;;;;;;;33.98;40.77;99189.39;105758;1281;99949;-68
2022/07/07 08:48:46;;;;;;;5.30;2.10;;;;;;;34.09;40.52;99186.98;105730;1281;113370;-68
2022/07/07 08:51:19;;;;;;;9.30;2.30;;;;;;;34.09;39.86;99184.66;105720;1281;98373;-66
2022/07/07 08:53:48;;;;;;;9.20;2.30;;;;;;;34.15;39.59;99186.64;105704;1281;107785;-67
2022/07/07 08:56:16;;;;;;;5.80;2.20;;;;;;;34.20;39.38;99181.59;105717;1280;99280;-67
2022/07/07 08:58:50;;;;;;;3.50;2.20;;;;;;;34.09;38.94;99180.85;105892;1281;99225;-66
2022/07/07 09:01:38;;;;;;;4.50;2.10;;;;;;;33.66;39.01;99177.44;105823;1281;113269;-67
2022/07/07 09:04:07;;;;;;;10.20;2.40;;;;;;;33.53;38.35;99175.61;105780;1281;99366;-67
2022/07/07 09:06:35;;;;;;;5.90;2.00;;;;;;;33.26;37.58;99181.10;105671;1284;107773;-67
2022/07/07 09:09:05;;;;;;;3.80;2.00;;;;;;;33.24;37.60;99177.17;105699;1281;99341;-67
2022/07/07 09:11:35;;;;;;;5.10;2.40;;;;;;;33.30;37.88;99174.96;105712;1281;99997;-67
2022/07/07 09:14:13;;;;;;;6.40;2.40;;;;;;;33.09;37.38;99175.68;105709;1281;113297;-67
2022/07/07 09:16:44;;;;;;;7.40;2.10;;;;;;;32.65;37.28;99173.78;105754;1281;97077;-71
2022/07/07 09:19:22;;;;;;;3.70;1.80;;;;;;;32.54;37.21;99176.02;105730;1281;107662;-67
2022/07/07 09:21:53;;;;;;;5.00;2.10;;;;;;;32.72;36.64;99172.95;105763;1281;99277;-68
2022/07/07 09:24:21;;;;;;;6.30;2.00;;;;;;;32.58;36.69;99172.11;105749;1281;99227;-67
2022/07/07 09:26:54;;;;;;;7.20;2.50;;;;;;;32.45;36.55;99172.91;105688;1281;113214;-67
2022/07/07 09:29:24;;;;;;;7.40;2.80;;;;;;;32.62;36.11;99166.64;105725;1281;97711;-72
2022/07/07 09:32:00;;;;;;;6.80;2.30;;;;;;;32.37;35.41;99167.74;105705;1281;106475;-68
2022/07/07 09:34:33;;;;;;;3.40;2.10;;;;;;;31.95;35.45;99168.55;105719;1281;99336;-70
2022/07/07 09:39:57;;;;;;;5.40;2.50;;;;;;;30.67;35.08;99163.73;105820;1279;112471;-69
2022/07/07 09:42:43;;;;;;;3.50;2.30;;;;;;;30.77;35.16;99162.95;105858;1281;99657;-70
2022/07/07 09:45:13;;;;;;;5.30;2.00;;;;;;;30.61;34.77;99159.86;105864;1281;107545;-69
2022/07/07 09:47:43;;;;;;;7.90;2.30;;;;;;;30.19;34.75;99159.41;105880;1280;99245;-68
2022/07/07 09:50:15;;;;;;;4.50;2.20;;;;;;;29.93;34.87;99157.86;105957;1280;96539;-68
2022/07/07 09:52:47;;;;;;;4.60;2.10;;;;;;;29.61;34.62;99160.44;105879;1281;112693;-66
2022/07/07 09:55:18;;;;;;;6.20;1.90;;;;;;;29.41;34.50;99155.80;105843;1281;97063;-66
2022/07/07 09:57:46;;;;;;;9.00;2.10;;;;;;;29.44;34.40;99161.48;105840;1279;108327;-68
2022/07/07 10:00:15;;;;;;;6.60;2.10;;;;;;;29.33;34.33;99164.41;105875;1281;99307;-69
2022/07/07 10:02:49;;;;;;;5.10;2.40;;;;;;;29.22;34.40;99161.77;105979;1281;99313;-68
2022/07/07 10:05:22;;;;;;;7.10;2.10;;;;;;;29.19;34.30;99164.84;105998;1281;112772;-68
2022/07/07 10:07:57;;;;;;;7.10;2.70;;;;;;;29.10;34.14;99173.34;105968;1280;99485;-67
2022/07/07 10:10:28;;;;;;;17.70;3.00;;;;;;;28.70;34.24;99170.62;105992;1280;107620;-66
2022/07/07 10:13:01;;;;;;;7.50;2.30;;;;;;;28.41;33.97;99167.02;105910;1280;99373;-67
2022/07/07 10:15:31;;;;;;;10.90;2.60;;;;;;;28.27;33.97;99168.83;105963;1279;99242;-66
2022/07/07 10:18:05;;;;;;;5.20;2.20;;;;;;;28.09;33.97;99169.66;105922;1280;112933;-65
2022/07/07 10:20:34;;;;;;;8.30;2.90;;;;;;;27.87;33.71;99173.19;105883;1278;99568;-66
2022/07/07 10:23:04;;;;;;;8.40;2.60;;;;;;;27.51;33.88;99172.98;105758;1280;108420;-68
2022/07/07 10:25:34;;;;;;;5.90;2.30;;;;;;;27.28;33.93;99173.48;107449;1279;97065;-66
2022/07/07 10:28:01;;;;;;;11.80;2.80;;;;;;;26.99;33.61;99171.02;107503;1279;97271;-67
2022/07/07 10:30:34;;;;;;;;;;;;;;;26.73;33.92;99172.27;105746;1279;113410;-67
2022/07/07 10:33:05;;;;;;;9.50;3.00;;;;;;;26.60;33.70;99167.27;106643;1279;98969;-68
2022/07/07 10:35:42;;;;;;;5.80;2.90;;;;;;;26.55;33.97;99167.78;105737;1279;108189;-68
2022/07/07 10:38:16;;;;;;;9.80;2.40;;;;;;;26.42;33.61;99167.95;107461;1279;97283;-67
2022/07/07 10:40:53;;;;;;;10.90;2.50;;;;;;;26.22;33.38;99165.00;106634;1279;96953;-66
2022/07/07 10:43:37;;;;;;;4.20;2.10;;;;;;;26.08;33.58;99165.63;107399;1279;111744;-66
2022/07/07 10:46:10;;;;;;;3.80;2.10;;;;;;;25.98;33.38;99158.24;106105;1279;99421;-68
2022/07/07 10:48:44;;;;;;;4.50;2.30;;;;;;;25.98;33.59;99157.69;105865;1279;110764;-68
2022/07/07 10:51:30;;;;;;;6.00;2.70;;;;;;;25.87;33.51;99156.30;105826;1279;99335;-67
2022/07/07 10:54:06;;;;;;;6.60;2.40;;;;;;;25.67;33.36;99160.27;105841;1279;99249;-66
2022/07/07 10:56:53;;;;;;;5.70;2.30;;;;;;;25.47;33.57;99159.45;105756;1281;112272;-67
2022/07/07 10:59:28;;;;;;;8.90;2.80;;;;;;;25.28;33.60;99161.62;105808;1279;99377;-67
2022/07/07 11:02:01;;;;;;;6.60;2.60;;;;;;;25.11;33.61;99161.56;105820;1279;108685;-67
2022/07/07 11:04:47;;;;;;;7.40;2.50;;;;;;;24.98;33.59;99161.56;105869;1279;99255;-67
2022/07/07 11:07:18;;;;;;;9.30;2.60;;;;;;;24.89;33.67;99161.36;105889;1279;99354;-67
2022/07/07 11:10:15;;;;;;;6.20;2.80;;;;;;;24.72;33.57;99162.95;105781;1279;113830;-67
2022/07/07 11:12:52;;;;;;;10.20;2.20;;;;;;;24.48;33.69;99160.80;105862;1279;99236;-66
2022/07/07 11:15:30;;;;;;;6.30;2.40;;;;;;;24.39;33.69;99162.91;105888;1279;107474;-67
2022/07/07 11:18:01;;;;;;;8.20;2.80;;;;;;;24.27;33.65;99159.41;105831;1279;99278;-67
2022/07/07 11:20:33;;;;;;;6.20;2.40;;;;;;;24.09;33.72;99156.81;105888;1279;96701;-67
2022/07/07 11:23:04;;;;;;;10.20;2.90;;;;;;;23.96;33.69;99156.37;105875;1279;113887;-67
2022/07/07 11:25:38;;;;;;;;;;;;;;;23.87;33.81;99151.73;105952;1279;99272;-66
2022/07/07 11:28:09;;;;;;;5.60;2.60;;;;;;;23.82;33.95;99149.85;105861;1279;108389;-64
2022/07/07 11:30:40;;;;;;;7.80;2.90;;;;;;;23.87;34.08;99148.09;105791;1279;99255;-68
2022/07/07 11:33:10;;;;;;;4.70;2.90;;;;;;;23.93;33.99;99146.09;105825;1279;99950;-67
2022/07/07 11:35:40;;;;;;;6.80;2.50;;;;;;;24.01;34.05;99141.08;105913;1279;113410;-66
2022/07/07 11:38:14;;;;;;;5.80;2.40;;;;;;;24.14;34.10;99142.23;105789;1279;96531;-67
2022/07/07 11:40:44;;;;;;;8.90;2.70;;;;;;;24.25;34.12;99135.36;105763;1279;107829;-66
2022/07/07 11:43:28;;;;;;;9.50;2.40;;;;;;;24.37;34.31;99133.96;105753;1279;99335;-68
2022/07/07 11:45:56;;;;;;;;;;;;;;;24.52;34.20;99125.92;105810;1279;99087;-69